sensor_id;sensor_type;location;lat;lon;timestamp;temperature;humidity
30999;DHT22;20549;50.042;8.968;2022-09-09T00:00:32;17.20;87.90
30999;DHT22;20549;50.042;8.968;2022-09-09T00:03:19;17.20;87.70
30999;DHT22;20549;50.042;8.968;2022-09-09T00:08:49;17.30;87.10
30999;DHT22;20549;50.042;8.968;2022-09-09T00:11:12;17.30;86.80
30999;DHT22;20549;50.042;8.968;2022-09-09T00:13:39;17.30;86.90
30999;DHT22;20549;50.042;8.968;2022-09-09T00:16:09;17.30;87.40
30999;DHT22;20549;50.042;8.968;2022-09-09T00:21:33;17.30;88.00
30999;DHT22;20549;50.042;8.968;2022-09-09T00:23:57;17.30;87.90
30999;DHT22;20549;50.042;8.968;2022-09-09T00:26:40;17.30;88.30
30999;DHT22;20549;50.042;8.968;2022-09-09T00:29:09;17.30;88.50
30999;DHT22;20549;50.042;8.968;2022-09-09T00:31:31;17.40;88.30
30999;DHT22;20549;50.042;8.968;2022-09-09T00:34:00;17.40;88.10
30999;DHT22;20549;50.042;8.968;2022-09-09T00:36:25;17.40;87.90
30999;DHT22;20549;50.042;8.968;2022-09-09T00:38:52;17.40;87.50
30999;DHT22;20549;50.042;8.968;2022-09-09T00:41:35;17.40;87.50
30999;DHT22;20549;50.042;8.968;2022-09-09T00:43:57;17.40;87.30
30999;DHT22;20549;50.042;8.968;2022-09-09T00:46:36;17.30;87.00
30999;DHT22;20549;50.042;8.968;2022-09-09T00:54:46;17.20;87.10
30999;DHT22;20549;50.042;8.968;2022-09-09T00:59:56;17.10;87.40
30999;DHT22;20549;50.042;8.968;2022-09-09T01:02:28;17.00;87.80
30999;DHT22;20549;50.042;8.968;2022-09-09T01:07:29;16.90;88.90
30999;DHT22;20549;50.042;8.968;2022-09-09T01:09:59;16.90;89.40
30999;DHT22;20549;50.042;8.968;2022-09-09T01:12:26;16.90;89.80
30999;DHT22;20549;50.042;8.968;2022-09-09T01:14:52;16.90;89.80
30999;DHT22;20549;50.042;8.968;2022-09-09T01:17:40;17.00;89.90
30999;DHT22;20549;50.042;8.968;2022-09-09T01:20:08;17.00;90.30
30999;DHT22;20549;50.042;8.968;2022-09-09T01:22:52;17.00;90.20
30999;DHT22;20549;50.042;8.968;2022-09-09T01:25:20;17.00;89.90
30999;DHT22;20549;50.042;8.968;2022-09-09T01:27:46;17.00;89.40
30999;DHT22;20549;50.042;8.968;2022-09-09T01:30:13;17.00;89.40
30999;DHT22;20549;50.042;8.968;2022-09-09T01:32:42;17.00;89.20
30999;DHT22;20549;50.042;8.968;2022-09-09T01:35:28;16.90;89.10
30999;DHT22;20549;50.042;8.968;2022-09-09T01:37:52;16.90;89.10
30999;DHT22;20549;50.042;8.968;2022-09-09T01:40:18;16.90;88.90
30999;DHT22;20549;50.042;8.968;2022-09-09T01:42:45;16.80;89.10
30999;DHT22;20549;50.042;8.968;2022-09-09T01:45:12;16.80;89.30
30999;DHT22;20549;50.042;8.968;2022-09-09T01:47:38;16.70;89.60
30999;DHT22;20549;50.042;8.968;2022-09-09T01:50:05;16.60;89.70
30999;DHT22;20549;50.042;8.968;2022-09-09T01:52:31;16.60;90.00
30999;DHT22;20549;50.042;8.968;2022-09-09T01:54:58;16.60;90.20
30999;DHT22;20549;50.042;8.968;2022-09-09T01:57:26;16.50;90.50
30999;DHT22;20549;50.042;8.968;2022-09-09T02:00:01;16.50;90.60
30999;DHT22;20549;50.042;8.968;2022-09-09T02:02:32;16.40;90.70
30999;DHT22;20549;50.042;8.968;2022-09-09T02:04:59;16.40;90.80
30999;DHT22;20549;50.042;8.968;2022-09-09T02:07:45;16.30;90.90
30999;DHT22;20549;50.042;8.968;2022-09-09T02:10:20;16.30;91.20
30999;DHT22;20549;50.042;8.968;2022-09-09T02:12:51;16.30;91.20
30999;DHT22;20549;50.042;8.968;2022-09-09T02:15:35;16.30;91.40
30999;DHT22;20549;50.042;8.968;2022-09-09T02:18:00;16.20;91.50
30999;DHT22;20549;50.042;8.968;2022-09-09T02:20:27;16.20;91.60
30999;DHT22;20549;50.042;8.968;2022-09-09T02:22:53;16.20;91.90
30999;DHT22;20549;50.042;8.968;2022-09-09T02:25:22;16.20;92.10
30999;DHT22;20549;50.042;8.968;2022-09-09T02:27:47;16.20;92.30
30999;DHT22;20549;50.042;8.968;2022-09-09T02:30:13;16.20;92.50
30999;DHT22;20549;50.042;8.968;2022-09-09T02:32:40;16.10;92.60
30999;DHT22;20549;50.042;8.968;2022-09-09T02:35:07;16.20;92.60
30999;DHT22;20549;50.042;8.968;2022-09-09T02:37:37;16.10;92.70
30999;DHT22;20549;50.042;8.968;2022-09-09T02:40:06;16.20;93.20
30999;DHT22;20549;50.042;8.968;2022-09-09T02:42:32;16.20;92.90
30999;DHT22;20549;50.042;8.968;2022-09-09T02:44:58;16.20;92.90
30999;DHT22;20549;50.042;8.968;2022-09-09T02:47:34;16.20;93.00
30999;DHT22;20549;50.042;8.968;2022-09-09T02:52:58;16.20;93.20
30999;DHT22;20549;50.042;8.968;2022-09-09T02:56:11;16.20;93.30
30999;DHT22;20549;50.042;8.968;2022-09-09T02:57:50;16.20;92.80
30999;DHT22;20549;50.042;8.968;2022-09-09T03:00:22;16.30;93.40
30999;DHT22;20549;50.042;8.968;2022-09-09T03:02:43;16.30;93.60
30999;DHT22;20549;50.042;8.968;2022-09-09T03:05:10;16.30;93.70
30999;DHT22;20549;50.042;8.968;2022-09-09T03:07:37;16.30;93.80
30999;DHT22;20549;50.042;8.968;2022-09-09T03:10:03;16.40;94.20
30999;DHT22;20549;50.042;8.968;2022-09-09T03:12:30;16.40;94.00
30999;DHT22;20549;50.042;8.968;2022-09-09T03:14:56;16.40;94.00
30999;DHT22;20549;50.042;8.968;2022-09-09T03:17:23;16.50;94.00
30999;DHT22;20549;50.042;8.968;2022-09-09T03:19:49;16.50;94.00
30999;DHT22;20549;50.042;8.968;2022-09-09T03:22:16;16.60;94.10
30999;DHT22;20549;50.042;8.968;2022-09-09T03:24:43;16.60;94.10
30999;DHT22;20549;50.042;8.968;2022-09-09T03:27:09;16.70;94.10
30999;DHT22;20549;50.042;8.968;2022-09-09T03:29:36;16.70;94.00
30999;DHT22;20549;50.042;8.968;2022-09-09T03:32:02;16.80;94.00
30999;DHT22;20549;50.042;8.968;2022-09-09T03:34:29;16.80;93.90
30999;DHT22;20549;50.042;8.968;2022-09-09T03:36:56;16.90;93.80
30999;DHT22;20549;50.042;8.968;2022-09-09T03:39:22;16.90;93.60
30999;DHT22;20549;50.042;8.968;2022-09-09T03:41:49;16.90;93.50
30999;DHT22;20549;50.042;8.968;2022-09-09T03:44:15;16.90;93.40
30999;DHT22;20549;50.042;8.968;2022-09-09T03:46:42;16.90;93.40
30999;DHT22;20549;50.042;8.968;2022-09-09T03:49:09;16.90;93.30
30999;DHT22;20549;50.042;8.968;2022-09-09T03:51:35;16.90;93.30
30999;DHT22;20549;50.042;8.968;2022-09-09T03:54:02;16.90;93.20
30999;DHT22;20549;50.042;8.968;2022-09-09T03:56:28;16.80;93.20
30999;DHT22;20549;50.042;8.968;2022-09-09T03:58:55;16.80;93.30
30999;DHT22;20549;50.042;8.968;2022-09-09T04:01:21;16.80;93.30
30999;DHT22;20549;50.042;8.968;2022-09-09T04:03:48;16.80;93.40
30999;DHT22;20549;50.042;8.968;2022-09-09T04:06:15;16.70;93.30
30999;DHT22;20549;50.042;8.968;2022-09-09T04:08:41;16.70;93.40
30999;DHT22;20549;50.042;8.968;2022-09-09T04:11:08;16.70;93.40
30999;DHT22;20549;50.042;8.968;2022-09-09T04:13:35;16.60;93.50
30999;DHT22;20549;50.042;8.968;2022-09-09T04:16:01;16.60;93.60
30999;DHT22;20549;50.042;8.968;2022-09-09T04:18:28;16.60;93.70
30999;DHT22;20549;50.042;8.968;2022-09-09T04:20:54;16.50;93.70
30999;DHT22;20549;50.042;8.968;2022-09-09T04:23:21;16.50;93.80
30999;DHT22;20549;50.042;8.968;2022-09-09T04:25:48;16.50;94.00
30999;DHT22;20549;50.042;8.968;2022-09-09T04:28:17;16.40;94.00
30999;DHT22;20549;50.042;8.968;2022-09-09T04:30:41;16.40;94.10
30999;DHT22;20549;50.042;8.968;2022-09-09T04:33:07;16.40;94.20
30999;DHT22;20549;50.042;8.968;2022-09-09T04:35:34;16.30;94.20
30999;DHT22;20549;50.042;8.968;2022-09-09T04:38:00;16.30;94.20
30999;DHT22;20549;50.042;8.968;2022-09-09T04:40:27;16.30;94.20
30999;DHT22;20549;50.042;8.968;2022-09-09T04:42:53;16.30;94.40
30999;DHT22;20549;50.042;8.968;2022-09-09T04:45:20;16.20;94.50
30999;DHT22;20549;50.042;8.968;2022-09-09T04:47:47;16.20;94.60
30999;DHT22;20549;50.042;8.968;2022-09-09T04:50:13;16.20;94.70
30999;DHT22;20549;50.042;8.968;2022-09-09T04:52:40;16.10;94.80
30999;DHT22;20549;50.042;8.968;2022-09-09T04:55:07;16.10;95.00
30999;DHT22;20549;50.042;8.968;2022-09-09T04:57:34;16.10;95.20
30999;DHT22;20549;50.042;8.968;2022-09-09T05:00:00;16.10;95.90
30999;DHT22;20549;50.042;8.968;2022-09-09T05:02:26;16.10;95.90
30999;DHT22;20549;50.042;8.968;2022-09-09T05:04:53;16.10;96.10
30999;DHT22;20549;50.042;8.968;2022-09-09T05:07:19;16.10;96.30
30999;DHT22;20549;50.042;8.968;2022-09-09T05:09:46;16.20;96.00
30999;DHT22;20549;50.042;8.968;2022-09-09T05:12:13;16.20;96.40
30999;DHT22;20549;50.042;8.968;2022-09-09T05:14:39;16.20;96.50
30999;DHT22;20549;50.042;8.968;2022-09-09T05:17:06;16.30;96.70
30999;DHT22;20549;50.042;8.968;2022-09-09T05:19:32;16.30;96.90
30999;DHT22;20549;50.042;8.968;2022-09-09T05:21:59;16.40;97.30
30999;DHT22;20549;50.042;8.968;2022-09-09T05:24:26;16.50;97.60
30999;DHT22;20549;50.042;8.968;2022-09-09T05:26:52;16.60;98.20
30999;DHT22;20549;50.042;8.968;2022-09-09T05:29:19;16.80;98.80
30999;DHT22;20549;50.042;8.968;2022-09-09T05:31:45;17.10;99.50
30999;DHT22;20549;50.042;8.968;2022-09-09T05:34:12;17.40;99.90
30999;DHT22;20549;50.042;8.968;2022-09-09T05:36:39;17.70;99.90
30999;DHT22;20549;50.042;8.968;2022-09-09T05:39:05;18.10;99.20
30999;DHT22;20549;50.042;8.968;2022-09-09T05:41:32;18.40;97.80
30999;DHT22;20549;50.042;8.968;2022-09-09T05:43:58;18.70;96.40
30999;DHT22;20549;50.042;8.968;2022-09-09T05:46:25;18.90;95.10
30999;DHT22;20549;50.042;8.968;2022-09-09T05:48:52;19.10;94.10
30999;DHT22;20549;50.042;8.968;2022-09-09T05:51:19;19.20;93.60
30999;DHT22;20549;50.042;8.968;2022-09-09T05:53:45;19.30;93.00
30999;DHT22;20549;50.042;8.968;2022-09-09T05:56:12;19.40;92.50
30999;DHT22;20549;50.042;8.968;2022-09-09T05:58:38;19.50;92.60
30999;DHT22;20549;50.042;8.968;2022-09-09T06:01:09;19.60;93.60
30999;DHT22;20549;50.042;8.968;2022-09-09T06:03:31;19.80;94.30
30999;DHT22;20549;50.042;8.968;2022-09-09T06:06:01;20.10;94.10
30999;DHT22;20549;50.042;8.968;2022-09-09T06:08:27;20.40;94.70
30999;DHT22;20549;50.042;8.968;2022-09-09T06:10:53;20.80;94.20
30999;DHT22;20549;50.042;8.968;2022-09-09T06:13:20;21.10;92.50
30999;DHT22;20549;50.042;8.968;2022-09-09T06:15:50;21.30;90.70
30999;DHT22;20549;50.042;8.968;2022-09-09T06:18:16;21.50;88.40
30999;DHT22;20549;50.042;8.968;2022-09-09T06:20:43;21.60;85.90
30999;DHT22;20549;50.042;8.968;2022-09-09T06:23:09;21.60;84.20
30999;DHT22;20549;50.042;8.968;2022-09-09T06:25:36;21.50;82.90
30999;DHT22;20549;50.042;8.968;2022-09-09T06:28:02;21.50;82.30
30999;DHT22;20549;50.042;8.968;2022-09-09T06:30:29;21.30;82.00
30999;DHT22;20549;50.042;8.968;2022-09-09T06:32:56;21.30;82.30
30999;DHT22;20549;50.042;8.968;2022-09-09T06:35:22;21.30;84.30
30999;DHT22;20549;50.042;8.968;2022-09-09T06:37:49;21.40;86.40
30999;DHT22;20549;50.042;8.968;2022-09-09T06:40:15;21.60;88.50
30999;DHT22;20549;50.042;8.968;2022-09-09T06:42:42;22.00;90.40
30999;DHT22;20549;50.042;8.968;2022-09-09T06:45:09;22.50;91.50
30999;DHT22;20549;50.042;8.968;2022-09-09T06:47:35;23.20;91.80
30999;DHT22;20549;50.042;8.968;2022-09-09T06:50:02;24.00;91.50
30999;DHT22;20549;50.042;8.968;2022-09-09T06:52:28;24.90;90.20
30999;DHT22;20549;50.042;8.968;2022-09-09T06:54:55;25.80;87.50
30999;DHT22;20549;50.042;8.968;2022-09-09T06:57:21;26.70;84.00
30999;DHT22;20549;50.042;8.968;2022-09-09T06:59:48;27.60;79.20
30999;DHT22;20549;50.042;8.968;2022-09-09T07:02:15;28.40;75.20
30999;DHT22;20549;50.042;8.968;2022-09-09T07:04:41;29.20;72.60
30999;DHT22;20549;50.042;8.968;2022-09-09T07:07:08;29.90;69.60
30999;DHT22;20549;50.042;8.968;2022-09-09T07:09:34;30.50;67.10
30999;DHT22;20549;50.042;8.968;2022-09-09T07:12:01;30.90;64.40
30999;DHT22;20549;50.042;8.968;2022-09-09T07:14:28;31.30;63.10
30999;DHT22;20549;50.042;8.968;2022-09-09T07:16:54;31.60;61.50
30999;DHT22;20549;50.042;8.968;2022-09-09T07:19:21;31.80;59.70
30999;DHT22;20549;50.042;8.968;2022-09-09T07:21:47;32.00;58.70
30999;DHT22;20549;50.042;8.968;2022-09-09T07:24:14;32.00;57.90
30999;DHT22;20549;50.042;8.968;2022-09-09T07:26:41;32.10;57.60
30999;DHT22;20549;50.042;8.968;2022-09-09T07:29:07;32.10;56.90
30999;DHT22;20549;50.042;8.968;2022-09-09T07:31:35;32.00;56.20
30999;DHT22;20549;50.042;8.968;2022-09-09T07:34:00;31.80;55.40
30999;DHT22;20549;50.042;8.968;2022-09-09T07:36:31;31.60;54.60
30999;DHT22;20549;50.042;8.968;2022-09-09T07:38:57;31.30;53.80
30999;DHT22;20549;50.042;8.968;2022-09-09T07:41:24;30.70;53.80
30999;DHT22;20549;50.042;8.968;2022-09-09T07:43:50;30.20;53.80
30999;DHT22;20549;50.042;8.968;2022-09-09T07:46:17;29.70;53.80
30999;DHT22;20549;50.042;8.968;2022-09-09T07:48:50;29.10;54.00
30999;DHT22;20549;50.042;8.968;2022-09-09T07:51:15;28.50;54.40
30999;DHT22;20549;50.042;8.968;2022-09-09T07:53:42;28.00;55.00
30999;DHT22;20549;50.042;8.968;2022-09-09T07:56:09;27.50;55.30
30999;DHT22;20549;50.042;8.968;2022-09-09T07:58:35;27.00;55.80
30999;DHT22;20549;50.042;8.968;2022-09-09T08:01:06;26.50;56.40
30999;DHT22;20549;50.042;8.968;2022-09-09T08:03:28;26.10;56.80
30999;DHT22;20549;50.042;8.968;2022-09-09T08:05:59;25.80;57.30
30999;DHT22;20549;50.042;8.968;2022-09-09T08:08:21;25.50;57.80
30999;DHT22;20549;50.042;8.968;2022-09-09T08:10:48;25.20;58.30
30999;DHT22;20549;50.042;8.968;2022-09-09T08:13:14;24.90;58.70
30999;DHT22;20549;50.042;8.968;2022-09-09T08:15:41;24.80;59.30
30999;DHT22;20549;50.042;8.968;2022-09-09T08:18:07;24.60;59.80
30999;DHT22;20549;50.042;8.968;2022-09-09T08:20:35;24.40;60.40
30999;DHT22;20549;50.042;8.968;2022-09-09T08:23:01;24.30;60.80
30999;DHT22;20549;50.042;8.968;2022-09-09T08:25:27;24.30;61.20
30999;DHT22;20549;50.042;8.968;2022-09-09T08:27:54;24.20;61.50
30999;DHT22;20549;50.042;8.968;2022-09-09T08:30:20;24.20;61.70
30999;DHT22;20549;50.042;8.968;2022-09-09T08:32:48;24.30;62.10
30999;DHT22;20549;50.042;8.968;2022-09-09T08:35:14;24.40;62.60
30999;DHT22;20549;50.042;8.968;2022-09-09T08:37:40;24.50;63.10
30999;DHT22;20549;50.042;8.968;2022-09-09T08:40:08;24.80;63.20
30999;DHT22;20549;50.042;8.968;2022-09-09T08:42:45;25.20;63.00
30999;DHT22;20549;50.042;8.968;2022-09-09T08:45:14;25.50;63.40
30999;DHT22;20549;50.042;8.968;2022-09-09T08:50:16;26.10;61.40
30999;DHT22;20549;50.042;8.968;2022-09-09T08:55:25;26.40;60.00
30999;DHT22;20549;50.042;8.968;2022-09-09T08:57:51;26.60;59.80
30999;DHT22;20549;50.042;8.968;2022-09-09T09:00:17;26.70;59.60
30999;DHT22;20549;50.042;8.968;2022-09-09T09:08:26;26.90;58.30
30999;DHT22;20549;50.042;8.968;2022-09-09T09:10:53;26.90;58.30
30999;DHT22;20549;50.042;8.968;2022-09-09T09:13:19;27.00;58.80
30999;DHT22;20549;50.042;8.968;2022-09-09T09:15:46;27.10;59.20
30999;DHT22;20549;50.042;8.968;2022-09-09T09:18:12;27.30;59.40
30999;DHT22;20549;50.042;8.968;2022-09-09T09:23:19;27.60;58.10
30999;DHT22;20549;50.042;8.968;2022-09-09T09:25:40;27.80;57.30
30999;DHT22;20549;50.042;8.968;2022-09-09T09:28:15;27.70;57.40
30999;DHT22;20549;50.042;8.968;2022-09-09T09:30:40;27.60;57.80
30999;DHT22;20549;50.042;8.968;2022-09-09T09:33:10;27.50;58.10
30999;DHT22;20549;50.042;8.968;2022-09-09T09:35:33;27.20;57.90
30999;DHT22;20549;50.042;8.968;2022-09-09T09:37:59;26.90;58.10
30999;DHT22;20549;50.042;8.968;2022-09-09T09:40:26;26.60;58.30
30999;DHT22;20549;50.042;8.968;2022-09-09T09:42:57;26.20;58.70
30999;DHT22;20549;50.042;8.968;2022-09-09T09:48:04;25.60;59.60
30999;DHT22;20549;50.042;8.968;2022-09-09T09:50:27;25.30;60.20
30999;DHT22;20549;50.042;8.968;2022-09-09T09:52:54;25.10;60.80
30999;DHT22;20549;50.042;8.968;2022-09-09T09:55:20;24.90;61.80
30999;DHT22;20549;50.042;8.968;2022-09-09T09:57:47;24.70;62.50
30999;DHT22;20549;50.042;8.968;2022-09-09T10:00:17;24.60;63.10
30999;DHT22;20549;50.042;8.968;2022-09-09T10:02:43;24.50;63.70
30999;DHT22;20549;50.042;8.968;2022-09-09T10:05:20;24.50;64.00
30999;DHT22;20549;50.042;8.968;2022-09-09T10:07:45;24.50;64.90
30999;DHT22;20549;50.042;8.968;2022-09-09T10:10:23;24.50;66.60
30999;DHT22;20549;50.042;8.968;2022-09-09T10:13:02;24.60;67.30
30999;DHT22;20549;50.042;8.968;2022-09-09T10:19:30;24.90;66.80
30999;DHT22;20549;50.042;8.968;2022-09-09T10:21:17;25.10;66.70
30999;DHT22;20549;50.042;8.968;2022-09-09T10:23:46;25.20;67.00
30999;DHT22;20549;50.042;8.968;2022-09-09T10:26:43;25.40;66.70
30999;DHT22;20549;50.042;8.968;2022-09-09T10:29:33;25.60;66.80
30999;DHT22;20549;50.042;8.968;2022-09-09T10:37:41;26.20;66.30
30999;DHT22;20549;50.042;8.968;2022-09-09T10:42:43;26.60;65.30
30999;DHT22;20549;50.042;8.968;2022-09-09T10:45:20;26.80;63.80
30999;DHT22;20549;50.042;8.968;2022-09-09T10:53:07;27.30;62.80
30999;DHT22;20549;50.042;8.968;2022-09-09T10:55:39;27.40;62.60
30999;DHT22;20549;50.042;8.968;2022-09-09T10:58:04;27.50;62.10
30999;DHT22;20549;50.042;8.968;2022-09-09T11:00:38;27.70;62.20
30999;DHT22;20549;50.042;8.968;2022-09-09T11:03:03;27.80;60.90
30999;DHT22;20549;50.042;8.968;2022-09-09T11:05:31;27.90;60.00
30999;DHT22;20549;50.042;8.968;2022-09-09T11:13:24;27.80;58.00
30999;DHT22;20549;50.042;8.968;2022-09-09T11:15:59;27.70;57.60
30999;DHT22;20549;50.042;8.968;2022-09-09T11:18:22;27.50;57.40
30999;DHT22;20549;50.042;8.968;2022-09-09T11:20:49;27.30;57.50
30999;DHT22;20549;50.042;8.968;2022-09-09T11:23:20;27.10;57.60
30999;DHT22;20549;50.042;8.968;2022-09-09T11:25:48;27.00;57.70
30999;DHT22;20549;50.042;8.968;2022-09-09T11:33:28;26.40;57.30
30999;DHT22;20549;50.042;8.968;2022-09-09T11:35:58;26.20;57.30
30999;DHT22;20549;50.042;8.968;2022-09-09T11:38:45;26.00;57.00
30999;DHT22;20549;50.042;8.968;2022-09-09T11:41:12;25.80;57.00
30999;DHT22;20549;50.042;8.968;2022-09-09T11:43:40;25.50;57.10
30999;DHT22;20549;50.042;8.968;2022-09-09T11:46:05;25.30;56.80
30999;DHT22;20549;50.042;8.968;2022-09-09T11:48:36;25.10;56.90
30999;DHT22;20549;50.042;8.968;2022-09-09T11:51:11;24.80;57.00
30999;DHT22;20549;50.042;8.968;2022-09-09T11:53:58;24.60;57.10
30999;DHT22;20549;50.042;8.968;2022-09-09T11:56:04;24.40;57.30
30999;DHT22;20549;50.042;8.968;2022-09-09T11:58:30;24.20;57.60
30999;DHT22;20549;50.042;8.968;2022-09-09T12:00:56;24.10;58.10
30999;DHT22;20549;50.042;8.968;2022-09-09T12:03:45;24.00;59.30
30999;DHT22;20549;50.042;8.968;2022-09-09T12:06:20;24.00;59.00
30999;DHT22;20549;50.042;8.968;2022-09-09T12:08:50;24.00;59.30
30999;DHT22;20549;50.042;8.968;2022-09-09T12:11:23;24.10;59.50
30999;DHT22;20549;50.042;8.968;2022-09-09T12:13:41;24.20;59.40
30999;DHT22;20549;50.042;8.968;2022-09-09T12:16:26;24.30;59.60
30999;DHT22;20549;50.042;8.968;2022-09-09T12:18:35;24.40;59.80
30999;DHT22;20549;50.042;8.968;2022-09-09T12:21:06;24.50;59.80
30999;DHT22;20549;50.042;8.968;2022-09-09T12:26:32;24.70;59.80
30999;DHT22;20549;50.042;8.968;2022-09-09T12:29:16;24.80;60.00
30999;DHT22;20549;50.042;8.968;2022-09-09T12:31:46;24.90;60.00
30999;DHT22;20549;50.042;8.968;2022-09-09T12:34:18;25.00;59.70
30999;DHT22;20549;50.042;8.968;2022-09-09T12:36:43;25.20;59.50
30999;DHT22;20549;50.042;8.968;2022-09-09T12:39:15;25.30;59.40
30999;DHT22;20549;50.042;8.968;2022-09-09T12:41:36;25.50;59.20
30999;DHT22;20549;50.042;8.968;2022-09-09T12:44:06;25.60;59.00
30999;DHT22;20549;50.042;8.968;2022-09-09T12:46:39;25.80;58.80
30999;DHT22;20549;50.042;8.968;2022-09-09T12:49:04;25.90;58.60
30999;DHT22;20549;50.042;8.968;2022-09-09T12:51:31;26.10;58.30
30999;DHT22;20549;50.042;8.968;2022-09-09T12:53:58;26.30;58.40
30999;DHT22;20549;50.042;8.968;2022-09-09T12:56:27;26.40;58.60
30999;DHT22;20549;50.042;8.968;2022-09-09T12:58:54;26.50;58.40
30999;DHT22;20549;50.042;8.968;2022-09-09T13:01:26;26.50;58.00
30999;DHT22;20549;50.042;8.968;2022-09-09T13:03:52;26.60;57.80
30999;DHT22;20549;50.042;8.968;2022-09-09T13:06:28;26.60;57.20
30999;DHT22;20549;50.042;8.968;2022-09-09T13:08:45;26.60;56.90
30999;DHT22;20549;50.042;8.968;2022-09-09T13:11:16;26.60;56.70
30999;DHT22;20549;50.042;8.968;2022-09-09T13:13:42;26.50;56.60
30999;DHT22;20549;50.042;8.968;2022-09-09T13:16:28;26.40;56.50
30999;DHT22;20549;50.042;8.968;2022-09-09T13:18:50;26.30;56.70
30999;DHT22;20549;50.042;8.968;2022-09-09T13:21:16;26.10;56.90
30999;DHT22;20549;50.042;8.968;2022-09-09T13:23:48;25.90;57.00
30999;DHT22;20549;50.042;8.968;2022-09-09T13:26:25;25.70;57.40
30999;DHT22;20549;50.042;8.968;2022-09-09T13:28:51;25.50;57.70
30999;DHT22;20549;50.042;8.968;2022-09-09T13:31:27;25.40;58.20
30999;DHT22;20549;50.042;8.968;2022-09-09T13:33:50;25.20;58.40
30999;DHT22;20549;50.042;8.968;2022-09-09T13:36:16;25.10;58.60
30999;DHT22;20549;50.042;8.968;2022-09-09T13:41:18;24.90;59.00
30999;DHT22;20549;50.042;8.968;2022-09-09T13:43:45;24.90;59.00
30999;DHT22;20549;50.042;8.968;2022-09-09T13:46:34;24.90;59.10
30999;DHT22;20549;50.042;8.968;2022-09-09T13:49:03;24.80;59.30
30999;DHT22;20549;50.042;8.968;2022-09-09T13:51:48;24.80;59.20
30999;DHT22;20549;50.042;8.968;2022-09-09T13:54:14;24.70;59.30
30999;DHT22;20549;50.042;8.968;2022-09-09T13:56:41;24.70;59.40
30999;DHT22;20549;50.042;8.968;2022-09-09T13:59:17;24.70;60.30
30999;DHT22;20549;50.042;8.968;2022-09-09T14:01:42;24.70;59.60
30999;DHT22;20549;50.042;8.968;2022-09-09T14:04:09;24.70;59.60
30999;DHT22;20549;50.042;8.968;2022-09-09T14:06:35;24.70;59.30
30999;DHT22;20549;50.042;8.968;2022-09-09T14:09:09;24.70;59.00
30999;DHT22;20549;50.042;8.968;2022-09-09T14:11:34;24.80;58.60
30999;DHT22;20549;50.042;8.968;2022-09-09T14:14:00;24.80;58.50
30999;DHT22;20549;50.042;8.968;2022-09-09T14:16:27;24.80;58.40
30999;DHT22;20549;50.042;8.968;2022-09-09T14:18:54;24.80;58.20
30999;DHT22;20549;50.042;8.968;2022-09-09T14:21:20;24.80;58.00
30999;DHT22;20549;50.042;8.968;2022-09-09T14:23:47;24.80;58.10
30999;DHT22;20549;50.042;8.968;2022-09-09T14:26:13;24.80;58.10
30999;DHT22;20549;50.042;8.968;2022-09-09T14:28:40;24.80;58.60
30999;DHT22;20549;50.042;8.968;2022-09-09T14:31:07;24.80;58.50
30999;DHT22;20549;50.042;8.968;2022-09-09T14:33:33;24.90;58.10
30999;DHT22;20549;50.042;8.968;2022-09-09T14:36:01;25.00;57.70
30999;DHT22;20549;50.042;8.968;2022-09-09T14:38:33;25.00;57.40
30999;DHT22;20549;50.042;8.968;2022-09-09T14:40:59;25.10;57.30
30999;DHT22;20549;50.042;8.968;2022-09-09T14:43:25;25.00;57.10
30999;DHT22;20549;50.042;8.968;2022-09-09T14:45:52;25.10;57.10
30999;DHT22;20549;50.042;8.968;2022-09-09T14:48:18;25.00;57.00
30999;DHT22;20549;50.042;8.968;2022-09-09T14:50:45;25.00;57.00
30999;DHT22;20549;50.042;8.968;2022-09-09T14:53:11;24.90;56.90
30999;DHT22;20549;50.042;8.968;2022-09-09T14:55:38;24.90;57.00
30999;DHT22;20549;50.042;8.968;2022-09-09T14:58:05;24.80;57.00
30999;DHT22;20549;50.042;8.968;2022-09-09T15:00:31;24.70;56.80
30999;DHT22;20549;50.042;8.968;2022-09-09T15:02:58;24.60;57.10
30999;DHT22;20549;50.042;8.968;2022-09-09T15:05:24;24.50;57.30
30999;DHT22;20549;50.042;8.968;2022-09-09T15:07:51;24.40;57.40
30999;DHT22;20549;50.042;8.968;2022-09-09T15:10:18;24.30;57.50
30999;DHT22;20549;50.042;8.968;2022-09-09T15:12:44;24.30;57.60
30999;DHT22;20549;50.042;8.968;2022-09-09T15:15:11;24.20;57.70
30999;DHT22;20549;50.042;8.968;2022-09-09T15:17:37;24.10;57.90
30999;DHT22;20549;50.042;8.968;2022-09-09T15:20:04;24.00;58.00
30999;DHT22;20549;50.042;8.968;2022-09-09T15:22:31;23.90;58.10
30999;DHT22;20549;50.042;8.968;2022-09-09T15:24:57;23.80;58.00
30999;DHT22;20549;50.042;8.968;2022-09-09T15:27:24;23.70;58.00
30999;DHT22;20549;50.042;8.968;2022-09-09T15:29:50;23.60;58.10
30999;DHT22;20549;50.042;8.968;2022-09-09T15:32:17;23.60;58.10
30999;DHT22;20549;50.042;8.968;2022-09-09T15:34:44;23.50;58.30
30999;DHT22;20549;50.042;8.968;2022-09-09T15:37:10;23.50;58.30
30999;DHT22;20549;50.042;8.968;2022-09-09T15:39:37;23.40;58.30
30999;DHT22;20549;50.042;8.968;2022-09-09T15:42:03;23.40;58.30
30999;DHT22;20549;50.042;8.968;2022-09-09T15:44:37;23.30;58.30
30999;DHT22;20549;50.042;8.968;2022-09-09T15:46:56;23.30;58.50
30999;DHT22;20549;50.042;8.968;2022-09-09T15:49:24;23.30;58.60
30999;DHT22;20549;50.042;8.968;2022-09-09T15:51:57;23.30;58.60
30999;DHT22;20549;50.042;8.968;2022-09-09T15:54:23;23.30;58.70
30999;DHT22;20549;50.042;8.968;2022-09-09T15:56:53;23.30;58.60
30999;DHT22;20549;50.042;8.968;2022-09-09T15:59:15;23.30;58.70
30999;DHT22;20549;50.042;8.968;2022-09-09T16:01:42;23.30;58.80
30999;DHT22;20549;50.042;8.968;2022-09-09T16:04:09;23.30;58.90
30999;DHT22;20549;50.042;8.968;2022-09-09T16:06:35;23.30;59.00
30999;DHT22;20549;50.042;8.968;2022-09-09T16:09:03;23.40;59.00
30999;DHT22;20549;50.042;8.968;2022-09-09T16:11:29;23.40;59.00
30999;DHT22;20549;50.042;8.968;2022-09-09T16:13:55;23.40;59.00
30999;DHT22;20549;50.042;8.968;2022-09-09T16:16:23;23.50;59.10
30999;DHT22;20549;50.042;8.968;2022-09-09T16:18:49;23.50;59.10
30999;DHT22;20549;50.042;8.968;2022-09-09T16:21:16;23.40;59.00
30999;DHT22;20549;50.042;8.968;2022-09-09T16:23:41;23.40;59.60
30999;DHT22;20549;50.042;8.968;2022-09-09T16:26:09;23.40;59.00
30999;DHT22;20549;50.042;8.968;2022-09-09T16:28:34;23.40;59.00
30999;DHT22;20549;50.042;8.968;2022-09-09T16:31:03;23.30;59.10
30999;DHT22;20549;50.042;8.968;2022-09-09T16:33:28;23.30;59.20
30999;DHT22;20549;50.042;8.968;2022-09-09T16:35:54;23.20;59.30
30999;DHT22;20549;50.042;8.968;2022-09-09T16:38:21;23.10;59.30
30999;DHT22;20549;50.042;8.968;2022-09-09T16:40:47;23.10;59.40
30999;DHT22;20549;50.042;8.968;2022-09-09T16:43:14;23.00;59.60